Quick Links (Output Below):   Max & Min Temps   /   Climate Reports   /   Zone Forecasts
River Forecasts   /   Forestry Forecasts   /   Aviation Forecasts   /   Radars   /   Features

Terminal Aerodrome Forecast (El Dorado)

Pick a Site:
Arkadelphia | El Dorado | Fayetteville | Fort Smith | Harrison | Highfill | Hot Springs | Jonesboro
Little Rock | Monticello | Mountain Home | Pine Bluff | Texarkana
 Forecast 

KELD 242340Z 2500/2524 20009KT P6SM SCT050
     FM250400 28010KT P6SM SCT060
     FM250600 30007KT P6SM SKC
     FM251500 36007KT P6SM FEW250
     FM252100 11007KT P6SM FEW250=


 Latest METARs (Observations) 
How to Decode METARs
00Z KELD 242353Z AUTO 19007KT 10SM CLR 22/20 A2977 RMK AO2 SLP079
         60047 T02220200 10256 20206 55006
         
***** Today's Observations (Above) *****


23Z KELD 242253Z AUTO 20009KT 10SM FEW080 22/20 A2977 RMK AO2 RAE13
         SLP078 P0001 T02220200
         
22Z KELD 242153Z AUTO 22007KT 1 3/4SM RA BR SCT006 BKN017 OVC028 21/20
         A2979 RMK AO2 LTG DSNT E TSE05 SLP085 P0008 T02060200
         
21Z KELD 242053Z AUTO VRB06KT 1 1/4SM -TSRA BR FEW005 BKN026 OVC033
         21/20 A2978 RMK AO2 LTG DSNT N-E RAB00E08B33 TSB12 SLP082
         P0038 60038 T02060200 55023
         
20Z KELD 241953Z AUTO 19010KT 10SM VCTS FEW038 OVC050 24/18 A2977 RMK
         AO2 LTG DSNT W-N SLP078 T02440183
         
19Z KELD 241853Z AUTO 17011G18KT 10SM FEW031 BKN060 BKN075 26/18 A2980
         RMK AO2 LTG DSNT N AND NW SLP088 T02560183
         
18Z KELD 241753Z AUTO 16010G19KT 10SM BKN024 OVC070 24/18 A2985 RMK
         AO2 SLP104 T02440183 10244 20122 58010
         
17Z KELD 241653Z AUTO 17010KT 10SM SCT027 BKN031 OVC065 23/18 A2987
         RMK AO2 SLP113 T02330178
         
16Z KELD 241553Z AUTO 18008KT 10SM FEW020 23/17 A2988 RMK AO2 SLP115
         T02280172
         
15Z KELD 241453Z AUTO 21012G19KT 10SM FEW016 21/16 A2989 RMK AO2
         SLP120 T02060161 53002
         
***** Yesterday's Observations (Above) *****


Back to Main Page
http://www.srh.noaa.gov/lzk/qfcst.php

USA.gov is the U.S. government's official web portal to all federal, state and local government web resources and services.